Time;durP1;ratioP1;P1;durP2;ratioP2;P2;SDS_P1;SDS_P2;PMS_P1;PMS_P2;Temp;Humidity;BMP_temperature;BMP_pressure;BME280_temperature;BME280_humidity;BME280_pressure;Samples;Min_cycle;Max_cycle;Signal;HPM_P1;HPM_P2
2023/01/14 01:08:24;;;;;;;35.70;18.30;;;;;;;1.51;99.55;101242.36;107318;1293;548814;-68
2023/01/14 01:10:53;;;;;;;34.90;18.10;;;;;;;4.79;86.09;101229.59;107600;1291;21992;-59
2023/01/14 01:13:22;;;;;;;35.00;18.30;;;;;;;5.39;78.45;101225.64;107765;1292;22003;-68
2023/01/14 01:15:48;;;;;;;38.40;20.50;;;;;;;5.71;76.02;101226.34;107744;1292;22081;-59
2023/01/14 01:18:14;;;;;;;42.00;19.40;;;;;;;5.92;74.38;101226.59;107774;1292;21989;-68
2023/01/14 01:20:42;;;;;;;36.00;18.80;;;;;;;6.09;73.17;101229.05;107565;1290;348765;-67
2023/01/14 01:23:11;;;;;;;37.00;18.40;;;;;;;6.24;72.54;101228.14;108024;1290;22039;-59
2023/01/14 01:25:37;;;;;;;38.10;16.50;;;;;;;6.37;71.68;101230.81;107942;1279;23065;-59
2023/01/14 01:28:03;;;;;;;32.00;15.50;;;;;;;6.47;71.23;101234.65;107915;1290;22063;-60
2023/01/14 01:30:28;;;;;;;24.00;13.50;;;;;;;6.54;70.65;101234.09;107849;1284;21992;-59
2023/01/14 01:32:58;;;;;;;32.20;13.00;;;;;;;6.59;70.54;101231.20;104069;1289;1003135;-68
2023/01/14 01:35:24;;;;;;;24.00;11.60;;;;;;;6.64;70.49;101231.11;107647;1285;21998;-68
2023/01/14 01:37:53;;;;;;;24.20;10.50;;;;;;;6.67;69.68;101225.40;107722;1290;22003;-68
2023/01/14 01:40:19;;;;;;;24.80;10.30;;;;;;;6.71;69.44;101223.73;107942;1289;22008;-59
2023/01/14 01:42:54;;;;;;;15.60;9.30;;;;;;;6.82;69.06;101225.49;107856;1290;22005;-68
2023/01/14 01:45:44;;;;;;;25.40;10.80;;;;;;;6.89;68.38;101222.80;107933;1290;22055;-68
2023/01/14 01:48:14;;;;;;;31.90;12.70;;;;;;;6.91;68.02;101224.23;107803;1290;21990;-68
2023/01/14 01:50:41;;;;;;;24.70;12.30;;;;;;;6.92;67.71;101220.06;107870;1290;22026;-59
2023/01/14 01:53:07;;;;;;;25.60;11.50;;;;;;;6.92;67.49;101219.73;107804;1290;22024;-68
2023/01/14 01:55:35;;;;;;;28.20;12.60;;;;;;;6.94;67.39;101222.01;107848;1290;22126;-59
2023/01/14 01:58:01;;;;;;;27.40;10.50;;;;;;;6.94;66.94;101225.16;107928;1290;21991;-59
2023/01/14 02:00:27;;;;;;;27.30;11.40;;;;;;;6.93;66.71;101224.80;107814;1290;22186;-59
2023/01/14 02:02:58;;;;;;;22.90;10.80;;;;;;;6.94;66.74;101221.50;107960;1290;21989;-68
2023/01/14 02:05:25;;;;;;;27.60;10.00;;;;;;;6.94;66.52;101219.60;107948;1290;21992;-68
2023/01/14 02:07:50;;;;;;;25.00;10.90;;;;;;;6.94;66.38;101219.57;107938;1290;22028;-68
2023/01/14 02:10:16;;;;;;;27.60;10.60;;;;;;;6.90;66.05;101219.85;107892;1290;21998;-59
2023/01/14 02:13:01;;;;;;;25.30;11.40;;;;;;;6.90;65.97;101223.01;107754;1290;21998;-59
2023/01/14 02:15:48;;;;;;;34.80;13.70;;;;;;;6.90;65.90;101217.60;107778;1290;22044;-68
2023/01/14 02:18:35;;;;;;;27.50;11.00;;;;;;;6.90;65.62;101215.14;107735;1278;22025;-68
2023/01/14 02:21:16;;;;;;;27.90;12.50;;;;;;;6.90;65.59;101209.38;107777;1290;21999;-59
2023/01/14 02:23:53;;;;;;;;;;;;;;;6.90;65.19;101208.35;107873;1290;22019;-68
2023/01/14 02:26:57;;;;;;;23.10;9.60;;;;;;;6.89;65.24;101209.55;107761;1290;22003;-59
2023/01/14 02:29:28;;;;;;;25.10;10.10;;;;;;;6.83;64.82;101210.67;107903;1290;22030;-60
2023/01/14 02:32:13;;;;;;;24.50;10.30;;;;;;;6.60;65.34;101208.90;107936;1278;22000;-59
2023/01/14 02:34:51;;;;;;;22.00;10.00;;;;;;;6.49;65.58;101209.77;107848;1290;21997;-59
2023/01/14 02:37:27;;;;;;;29.30;11.40;;;;;;;6.45;65.58;101215.09;107735;1290;23765;-68
2023/01/14 02:40:20;;;;;;;30.50;12.80;;;;;;;6.43;65.42;101218.36;107824;1290;23856;-68
2023/01/14 02:45:46;;;;;;;24.70;12.80;;;;;;;6.42;65.18;101220.63;107938;1290;23064;-59
2023/01/14 02:48:13;;;;;;;29.10;13.40;;;;;;;6.62;64.42;101219.40;107885;1290;22874;-70
2023/01/14 02:50:39;;;;;;;28.60;11.00;;;;;;;6.67;64.13;101221.41;107938;1291;22052;-59
2023/01/14 02:53:09;;;;;;;24.00;10.60;;;;;;;6.69;64.26;101224.39;107743;1290;22015;-60
2023/01/14 02:55:36;;;;;;;33.60;11.90;;;;;;;6.70;63.82;101223.73;107659;1291;21996;-59
2023/01/14 02:58:08;;;;;;;24.70;11.80;;;;;;;6.71;63.74;101222.33;107909;1290;21997;-68
2023/01/14 03:01:13;;;;;;;37.50;12.60;;;;;;;6.71;63.50;101221.48;107937;1290;22000;-68
2023/01/14 03:04:17;;;;;;;22.70;11.40;;;;;;;6.67;63.38;101216.70;107967;1290;22065;-60
2023/01/14 03:06:52;;;;;;;25.60;12.30;;;;;;;6.65;63.15;101218.58;107910;1290;22006;-68
2023/01/14 03:09:30;;;;;;;33.80;12.70;;;;;;;6.63;63.12;101219.08;107908;1290;22181;-68
2023/01/14 03:12:02;;;;;;;30.30;11.80;;;;;;;6.63;63.26;101217.32;107997;1290;21999;-59
2023/01/14 03:14:41;;;;;;;28.30;11.30;;;;;;;6.63;63.25;101216.27;107959;1290;22026;-59
2023/01/14 03:27:31;;;;;;;26.40;11.40;;;;;;;6.56;62.74;101222.96;107670;1290;21991;-68
2023/01/14 03:30:03;;;;;;;24.40;10.00;;;;;;;6.54;62.54;101223.45;107818;1291;22058;-68
2023/01/14 03:32:41;;;;;;;26.30;11.30;;;;;;;6.53;62.57;101223.44;107828;1291;23060;-68
2023/01/14 03:35:10;;;;;;;28.30;11.70;;;;;;;6.52;62.35;101227.42;107693;1290;22054;-68
2023/01/14 03:37:39;;;;;;;29.80;12.10;;;;;;;6.52;62.32;101230.38;107969;1290;22027;-59
2023/01/14 03:40:05;;;;;;;23.00;11.50;;;;;;;6.51;62.72;101229.50;107729;1290;22023;-67
2023/01/14 03:42:34;;;;;;;25.30;11.00;;;;;;;6.52;62.71;101231.95;107891;1290;22262;-59
2023/01/14 03:45:17;;;;;;;26.30;11.40;;;;;;;6.50;62.52;101235.57;108009;1290;21990;-60
2023/01/14 03:47:44;;;;;;;25.50;12.20;;;;;;;6.49;62.56;101236.60;107873;1290;21992;-68
2023/01/14 03:50:15;;;;;;;26.40;11.10;;;;;;;6.47;62.62;101237.44;107901;1277;22037;-60
2023/01/14 03:53:03;;;;;;;31.40;12.80;;;;;;;6.48;62.48;101240.42;107916;1290;22034;-59
2023/01/14 03:55:34;;;;;;;28.10;13.80;;;;;;;6.47;62.24;101241.62;107665;1290;21993;-67
2023/01/14 03:58:20;;;;;;;33.60;13.00;;;;;;;6.45;61.98;101242.98;107632;1291;22044;-59
2023/01/14 04:00:50;;;;;;;30.50;12.20;;;;;;;6.42;62.11;101240.31;107627;1291;22030;-59
2023/01/14 04:03:16;;;;;;;22.70;11.60;;;;;;;6.42;62.11;101241.52;107688;1291;21990;-60
2023/01/14 04:05:42;;;;;;;22.40;10.00;;;;;;;6.42;62.04;101242.74;108001;1291;21999;-60
2023/01/14 04:08:07;;;;;;;25.20;10.60;;;;;;;6.39;61.80;101239.92;107805;1291;22038;-59
2023/01/14 04:10:35;;;;;;;24.90;13.40;;;;;;;6.36;61.52;101235.50;107000;1291;1002484;-66
2023/01/14 04:15:45;;;;;;;24.70;11.30;;;;;;;6.33;61.30;101233.17;107824;1290;23753;-60
2023/01/14 04:18:11;;;;;;;24.40;11.60;;;;;;;6.37;61.43;101230.27;107897;1290;21988;-67
2023/01/14 04:20:37;;;;;;;27.80;12.50;;;;;;;6.39;61.62;101228.41;107779;1290;22034;-59
2023/01/14 04:23:03;;;;;;;30.00;11.00;;;;;;;6.38;61.85;101228.74;107796;1286;21991;-59
2023/01/14 04:25:29;;;;;;;17.90;9.20;;;;;;;6.40;61.90;101230.52;107722;1287;21994;-59
2023/01/14 04:27:55;;;;;;;24.00;11.20;;;;;;;6.38;61.58;101232.77;107679;1287;21988;-59
2023/01/14 04:30:22;;;;;;;25.20;10.80;;;;;;;6.36;61.70;101230.80;107699;1290;22003;-59
2023/01/14 04:32:47;;;;;;;17.30;10.60;;;;;;;6.36;61.51;101230.28;107788;1290;22015;-67
2023/01/14 04:35:13;;;;;;;23.20;11.00;;;;;;;6.37;61.35;101231.17;107848;1290;21996;-68
2023/01/14 04:37:39;;;;;;;22.70;11.60;;;;;;;6.46;61.36;101226.44;107835;1290;22249;-68
2023/01/14 04:40:05;;;;;;;25.90;10.70;;;;;;;6.53;61.48;101226.91;107746;1290;24790;-67
2023/01/14 04:42:32;;;;;;;22.00;10.60;;;;;;;6.61;61.39;101226.53;107763;1287;22075;-67
2023/01/14 04:45:00;;;;;;;26.10;10.50;;;;;;;6.55;61.36;101226.42;107700;1290;22000;-67
2023/01/14 10:11:47;;;;;;;23.40;11.60;;;;;;;1.86;100.00;101274.38;107626;1288;547913;-67
2023/01/14 10:14:16;;;;;;;26.70;11.50;;;;;;;5.21;87.92;101256.36;107932;1289;22000;-67
2023/01/14 10:17:07;;;;;;;26.90;12.80;;;;;;;5.86;79.26;101255.05;107722;1290;21996;-66
2023/01/14 10:19:53;;;;;;;29.40;13.90;;;;;;;6.21;76.48;101258.73;107791;1290;22137;-66
2023/01/14 10:22:34;;;;;;;32.60;14.70;;;;;;;6.46;74.75;101254.16;107718;1290;22098;-67
2023/01/14 10:25:01;;;;;;;24.50;13.30;;;;;;;6.63;73.73;101252.38;107814;1288;212788;-59
2023/01/14 10:27:28;;;;;;;20.50;11.80;;;;;;;6.78;72.74;101255.43;108164;1288;22002;-60
2023/01/14 10:29:55;;;;;;;19.60;11.00;;;;;;;6.90;72.38;101260.17;108130;1288;21992;-60
2023/01/14 10:32:24;;;;;;;16.70;9.30;;;;;;;7.00;72.02;101260.86;108143;1288;22007;-66
2023/01/14 10:34:52;;;;;;;17.90;10.10;;;;;;;7.10;71.41;101259.63;107957;1288;21989;-59
2023/01/14 10:37:17;;;;;;;14.30;8.10;;;;;;;7.21;71.03;101259.61;108105;1288;21995;-59
2023/01/14 10:39:46;;;;;;;16.10;8.40;;;;;;;7.29;70.36;101259.40;108069;1288;22001;-59
2023/01/14 10:42:12;;;;;;;13.60;7.80;;;;;;;7.35;69.62;101257.55;108166;1288;21989;-60
2023/01/14 10:44:39;;;;;;;16.30;8.60;;;;;;;7.36;69.09;101257.77;108059;1288;22040;-59
2023/01/14 10:47:09;;;;;;;13.90;7.90;;;;;;;7.34;68.42;101256.15;108177;1288;22003;-67
2023/01/14 10:49:38;;;;;;;17.00;8.60;;;;;;;7.33;67.84;101252.64;108127;1288;23778;-59
2023/01/14 10:52:25;;;;;;;14.10;8.00;;;;;;;7.26;67.31;101251.50;108134;1288;22090;-67
2023/01/14 10:55:07;;;;;;;16.10;8.30;;;;;;;7.17;66.67;101252.58;108083;1288;21998;-67
2023/01/14 10:57:34;;;;;;;17.50;9.20;;;;;;;7.10;66.88;101253.86;107952;1288;21993;-67
2023/01/14 11:00:00;;;;;;;16.50;7.80;;;;;;;7.12;67.18;101251.63;108141;1288;21998;-59
2023/01/14 11:02:39;;;;;;;18.00;9.80;;;;;;;7.18;67.23;101245.61;108094;1288;21990;-60
2023/01/14 11:05:25;;;;;;;14.60;8.60;;;;;;;7.21;66.84;101240.27;108113;1287;22006;-66
2023/01/14 11:07:52;;;;;;;15.80;8.20;;;;;;;7.26;66.76;101241.89;108124;1287;21993;-59
2023/01/14 11:10:22;;;;;;;13.40;7.50;;;;;;;7.24;65.63;101239.08;108098;1288;22030;-67
2023/01/14 11:12:47;;;;;;;15.50;8.80;;;;;;;7.16;65.76;101239.30;108037;1288;22018;-67
2023/01/14 11:15:33;;;;;;;14.40;8.60;;;;;;;7.17;65.68;101239.13;108097;1288;21998;-59
2023/01/14 11:18:17;;;;;;;14.50;8.30;;;;;;;7.17;65.81;101244.38;108143;1288;22184;-59
2023/01/14 11:20:44;;;;;;;15.80;8.90;;;;;;;7.17;65.43;101247.86;108143;1288;21997;-67
2023/01/14 11:23:20;;;;;;;15.30;9.20;;;;;;;7.10;64.84;101251.23;107982;1283;22969;-60
2023/01/14 11:25:49;;;;;;;15.80;8.20;;;;;;;7.07;64.97;101248.73;107998;1288;22058;-68
2023/01/14 11:28:15;;;;;;;15.40;7.70;;;;;;;7.06;64.82;101246.12;108084;1288;22071;-62
2023/01/14 11:30:44;;;;;;;15.30;9.00;;;;;;;7.05;64.71;101245.60;108056;1288;23774;-61
2023/01/14 11:33:18;;;;;;;16.20;8.70;;;;;;;7.04;64.66;101250.28;107934;1288;22037;-68
2023/01/14 11:35:43;;;;;;;16.10;9.10;;;;;;;7.02;64.44;101248.15;108136;1288;23056;-68
2023/01/14 11:38:12;;;;;;;16.40;9.20;;;;;;;6.98;64.45;101247.41;107905;1288;22010;-60
2023/01/14 19:59:58;;;;;;;44.00;21.90;;;;;;;1.74;99.98;101381.30;107210;1282;1003209;-59
2023/01/14 20:02:27;;;;;;;44.70;23.50;;;;;;;4.11;87.27;101367.80;108138;1283;21993;-69
2023/01/14 20:04:53;;;;;;;45.10;23.20;;;;;;;4.62;79.99;101356.61;108146;1286;21984;-68
2023/01/14 20:07:19;;;;;;;50.20;26.40;;;;;;;4.89;77.66;101353.17;108165;1286;21990;-60
2023/01/14 20:09:46;;;;;;;70.30;35.80;;;;;;;5.08;76.42;101352.27;108187;1284;21994;-60
2023/01/14 20:12:12;;;;;;;46.80;25.60;;;;;;;5.25;75.48;101353.92;108115;1281;327068;-60
2023/01/14 20:14:38;;;;;;;42.70;22.90;;;;;;;5.40;74.82;101348.56;108445;1281;21993;-60
2023/01/14 20:17:04;;;;;;;37.00;20.90;;;;;;;5.55;74.32;101345.42;108401;1281;23548;-59
2023/01/14 20:19:30;;;;;;;33.80;18.20;;;;;;;5.68;73.68;101347.31;108381;1282;22052;-68
2023/01/14 20:21:55;;;;;;;40.20;19.60;;;;;;;5.77;73.03;101346.81;108339;1282;23053;-68
2023/01/14 20:24:21;;;;;;;36.20;21.20;;;;;;;5.84;72.47;101349.59;108397;1281;21981;-68
2023/01/14 20:26:48;;;;;;;34.60;16.10;;;;;;;5.91;71.80;101346.09;108402;1281;22021;-60
2023/01/14 20:29:14;;;;;;;36.30;18.00;;;;;;;5.96;71.26;101346.73;108534;1281;21976;-60
2023/01/14 20:31:41;;;;;;;29.70;16.90;;;;;;;6.04;71.24;101347.80;108524;1281;23076;-69
2023/01/14 20:34:07;;;;;;;29.00;14.50;;;;;;;6.14;71.17;101348.89;108450;1281;21974;-67
2023/01/14 20:36:32;;;;;;;21.90;11.90;;;;;;;6.20;70.87;101348.48;108394;1281;21997;-59
2023/01/14 20:38:58;;;;;;;28.70;13.40;;;;;;;6.22;70.29;101344.17;107681;1281;1002439;-67
2023/01/14 20:41:24;;;;;;;21.90;11.50;;;;;;;6.20;69.81;101344.12;108418;1282;22017;-58
2023/01/14 20:43:50;;;;;;;22.80;12.50;;;;;;;6.17;69.08;101343.36;108444;1279;22003;-59
2023/01/14 20:46:21;;;;;;;32.20;14.50;;;;;;;6.13;68.93;101346.92;108428;1274;21998;-59
2023/01/14 20:48:47;;;;;;;29.90;13.50;;;;;;;6.07;68.52;101353.79;108394;1282;21986;-67
2023/01/14 20:51:17;;;;;;;31.90;10.30;;;;;;;6.05;68.54;101355.30;108396;1282;22032;-59
2023/01/14 20:53:43;;;;;;;27.00;13.30;;;;;;;6.05;68.36;101355.48;108190;1282;23756;-67
2023/01/14 20:56:15;;;;;;;29.10;13.00;;;;;;;6.01;67.93;101353.98;108422;1281;21982;-59
2023/01/14 21:01:10;;;;;;;26.70;12.30;;;;;;;5.97;67.94;101358.05;108413;1281;24319;-59
2023/01/14 21:03:37;;;;;;;28.40;13.80;;;;;;;5.99;68.02;101360.34;108203;1282;24340;-59
2023/01/14 21:06:05;;;;;;;31.40;12.60;;;;;;;6.01;67.95;101356.07;108134;1282;23053;-68
2023/01/14 21:08:35;;;;;;;27.50;14.40;;;;;;;6.06;67.66;101352.89;108311;1279;21984;-61
2023/01/14 21:11:22;;;;;;;28.40;12.00;;;;;;;6.09;67.56;101352.77;108322;1282;22031;-68
2023/01/14 21:25:20;;;;;;;30.20;13.50;;;;;;;6.11;66.40;101349.52;108342;1282;21982;-68
2023/01/14 21:27:46;;;;;;;22.30;10.70;;;;;;;6.05;66.17;101348.49;108168;1282;22076;-59
2023/01/14 21:30:11;;;;;;;31.10;11.90;;;;;;;6.05;66.52;101346.07;108375;1282;21980;-68
2023/01/14 21:32:38;;;;;;;28.30;11.00;;;;;;;6.11;66.86;101344.61;108379;1282;21985;-68
2023/01/14 21:35:04;;;;;;;26.60;12.70;;;;;;;6.14;66.75;101345.73;108418;1282;21995;-59
2023/01/14 21:37:31;;;;;;;21.20;10.60;;;;;;;6.17;66.72;101346.33;108437;1282;21988;-60
2023/01/14 21:39:57;;;;;;;21.60;9.60;;;;;;;6.20;66.69;101350.40;108399;1277;21985;-69
2023/01/14 21:45:08;;;;;;;28.10;11.00;;;;;;;6.21;65.98;101357.38;108384;1282;21981;-59
2023/01/14 21:47:35;;;;;;;30.50;10.60;;;;;;;6.18;65.91;101356.98;108407;1282;21990;-67
2023/01/14 21:50:01;;;;;;;33.20;12.90;;;;;;;6.11;65.15;101355.45;108367;1282;22150;-67
2023/01/14 21:52:27;;;;;;;28.10;13.40;;;;;;;6.04;65.28;101359.11;108424;1282;22025;-67
2023/01/14 21:54:53;;;;;;;27.90;11.50;;;;;;;6.00;65.37;101365.61;108486;1282;24330;-70
2023/01/14 21:57:19;;;;;;;22.40;11.20;;;;;;;5.93;65.15;101361.29;108444;1282;21980;-68
